TimeEDT,TemperatureF,Dew PointF,Humidity,Sea Level PressureIn,VisibilityMPH,Wind Direction,Wind SpeedMPH,Gust SpeedMPH,PrecipitationIn,Events,Conditions,WindDirDegrees,DateUTC
12:53 AM,44.1,39.0,82,30.02,10.0,SE,3.5,-,N/A,,Clear,130,2013-10-21 04:53:00
1:53 AM,41.0,39.0,93,30.02,10.0,SE,3.5,-,N/A,,Clear,130,2013-10-21 05:53:00
2:53 AM,39.0,37.0,93,30.03,10.0,ESE,4.6,-,N/A,,Clear,110,2013-10-21 06:53:00
3:53 AM,42.1,39.0,89,30.02,10.0,ESE,3.5,-,N/A,,Clear,120,2013-10-21 07:53:00
4:53 AM,37.0,35.1,93,30.03,10.0,Calm,Calm,-,N/A,,Clear,0,2013-10-21 08:53:00
5:53 AM,37.0,35.1,93,30.03,10.0,Calm,Calm,-,N/A,,Clear,0,2013-10-21 09:53:00
6:53 AM,39.0,37.0,93,30.04,10.0,Calm,Calm,-,N/A,,Clear,0,2013-10-21 10:53:00
7:53 AM,37.9,37.0,97,30.03,10.0,ESE,3.5,-,N/A,,Clear,120,2013-10-21 11:53:00
8:53 AM,44.1,41.0,89,30.04,10.0,East,3.5,-,N/A,,Clear,100,2013-10-21 12:53:00
9:53 AM,53.1,41.0,64,30.03,10.0,SSW,4.6,-,N/A,,Clear,200,2013-10-21 13:53:00
10:53 AM,60.1,42.1,51,30.01,10.0,SW,8.1,-,N/A,,Clear,220,2013-10-21 14:53:00
11:53 AM,62.1,43.0,50,30.00,10.0,SW,9.2,20.7,N/A,,Clear,230,2013-10-21 15:53:00
12:53 PM,64.9,44.1,47,29.98,10.0,Variable,6.9,18.4,N/A,,Clear,0,2013-10-21 16:53:00
1:53 PM,66.9,43.0,42,29.94,10.0,SSW,9.2,18.4,N/A,,Clear,200,2013-10-21 17:53:00
2:53 PM,69.1,43.0,39,29.93,10.0,Variable,6.9,16.1,N/A,,Mostly Cloudy,0,2013-10-21 18:53:00
3:53 PM,64.0,41.0,43,29.92,10.0,SSW,9.2,16.1,N/A,,Overcast,210,2013-10-21 19:53:00
4:53 PM,66.0,42.1,42,29.91,10.0,SW,9.2,18.4,N/A,,Overcast,220,2013-10-21 20:53:00
5:53 PM,64.0,42.1,45,29.91,10.0,SSW,9.2,-,N/A,,Overcast,200,2013-10-21 21:53:00
6:53 PM,61.0,42.1,50,29.92,10.0,SSW,5.8,-,N/A,,Overcast,210,2013-10-21 22:53:00
7:53 PM,59.0,43.0,55,29.92,10.0,SW,3.5,-,N/A,,Overcast,230,2013-10-21 23:53:00
8:53 PM,55.9,46.0,69,29.92,10.0,Calm,Calm,-,N/A,,Overcast,0,2013-10-22 00:53:00
9:53 PM,55.9,46.9,72,29.94,10.0,West,6.9,16.1,N/A,,Overcast,280,2013-10-22 01:53:00
10:40 PM,53.6,48.2,82,29.96,10.0,WNW,12.7,-,0.00,Rain,Light Rain,300,2013-10-22 02:40:00
10:53 PM,53.1,48.0,83,29.96,10.0,WNW,5.8,-,0.00,Rain,Light Rain,290,2013-10-22 02:53:00
11:17 PM,51.8,48.2,88,29.96,10.0,NW,10.4,16.1,0.00,Rain,Light Rain,310,2013-10-22 03:17:00
11:37 PM,50.0,44.6,82,29.97,8.0,NW,12.7,-,0.00,Rain,Light Rain,310,2013-10-22 03:37:00
11:53 PM,48.9,44.1,83,29.97,10.0,NW,12.7,16.1,0.00,Rain,Light Rain,310,2013-10-22 03:53:00